createdAt,value
2022-10-26T00:01:21.993Z,20.13
2022-10-26T00:03:49.984Z,18.67
2022-10-26T00:06:19.799Z,12.60
2022-10-26T00:08:49.837Z,11.47
2022-10-26T00:11:20.005Z,10.97
2022-10-26T00:13:48.591Z,16.00
2022-10-26T00:16:18.807Z,10.40
2022-10-26T00:18:46.657Z,9.53
2022-10-26T00:21:15.058Z,9.83
2022-10-26T00:23:42.839Z,11.40
2022-10-26T00:26:11.199Z,9.23
2022-10-26T00:28:40.673Z,9.50
2022-10-26T00:31:13.264Z,13.30
2022-10-26T00:33:41.053Z,9.40
2022-10-26T00:36:10.390Z,10.13
2022-10-26T00:38:38.256Z,10.20
2022-10-26T00:41:06.793Z,9.83
2022-10-26T00:43:36.772Z,10.50
2022-10-26T00:46:09.344Z,14.80
2022-10-26T00:48:40.331Z,10.33
2022-10-26T00:51:11.483Z,9.83
2022-10-26T00:53:39.818Z,8.83
2022-10-26T00:56:08.173Z,10.60
2022-10-26T00:58:37.180Z,8.80
2022-10-26T01:01:06.432Z,8.47
2022-10-26T01:03:36.785Z,8.10
2022-10-26T01:06:06.500Z,8.17
2022-10-26T01:08:35.165Z,7.67
2022-10-26T01:11:04.239Z,10.20
2022-10-26T01:13:35.786Z,7.07
2022-10-26T01:16:20.478Z,6.57
2022-10-26T01:18:58.955Z,7.83
2022-10-26T01:21:49.736Z,8.77
2022-10-26T01:24:47.307Z,6.47
2022-10-26T01:27:31.551Z,8.07
2022-10-26T01:30:29.905Z,9.47
2022-10-26T01:33:24.968Z,9.33
2022-10-26T01:36:04.209Z,7.63
2022-10-26T01:38:37.770Z,9.07
2022-10-26T01:41:12.985Z,9.33
2022-10-26T01:43:47.341Z,8.93
2022-10-26T01:46:20.975Z,8.33
2022-10-26T01:48:53.017Z,8.20
2022-10-26T01:51:22.169Z,8.03
2022-10-26T01:53:50.317Z,8.90
2022-10-26T01:56:22.193Z,7.37
2022-10-26T01:59:04.429Z,6.90
2022-10-26T02:01:51.465Z,7.13
2022-10-26T02:04:35.767Z,9.30
2022-10-26T02:07:10.060Z,9.00
2022-10-26T02:09:47.201Z,13.27
2022-10-26T02:12:24.129Z,13.30
2022-10-26T02:14:58.483Z,16.03
2022-10-26T02:17:30.665Z,13.30
2022-10-26T02:20:04.201Z,13.30
2022-10-26T02:22:36.031Z,16.83
2022-10-26T02:25:13.196Z,14.77
2022-10-26T02:27:45.652Z,16.30
2022-10-26T02:30:14.476Z,20.53
2022-10-26T02:32:48.032Z,16.37
2022-10-26T02:35:18.498Z,14.83
2022-10-26T02:37:49.157Z,13.40
2022-10-26T02:40:21.725Z,14.67
2022-10-26T02:42:53.705Z,13.77
2022-10-26T02:45:27.040Z,12.13
2022-10-26T02:47:57.160Z,11.50
2022-10-26T02:50:32.760Z,11.63
2022-10-26T02:53:08.772Z,11.30
2022-10-26T02:55:41.230Z,15.43
2022-10-26T02:58:15.965Z,9.93
2022-10-26T03:00:44.427Z,10.60
2022-10-26T03:03:14.773Z,9.50
2022-10-26T03:05:43.801Z,11.10
2022-10-26T03:08:11.924Z,9.60
2022-10-26T03:10:42.538Z,10.30
2022-10-26T03:13:11.456Z,8.30
2022-10-26T03:15:39.483Z,6.90
2022-10-26T03:18:07.997Z,7.03
2022-10-26T03:20:37.320Z,7.10
2022-10-26T03:23:05.114Z,6.63
2022-10-26T03:25:32.879Z,7.87
2022-10-26T03:28:02.381Z,10.00
2022-10-26T03:30:31.535Z,6.67
2022-10-26T03:32:59.415Z,7.77
2022-10-26T03:35:27.229Z,7.40
2022-10-26T03:37:56.479Z,6.33
2022-10-26T03:40:24.325Z,8.27
2022-10-26T03:42:52.469Z,6.37
2022-10-26T03:45:20.530Z,6.87
2022-10-26T03:47:49.779Z,6.57
2022-10-26T03:50:19.695Z,7.07
2022-10-26T03:52:48.811Z,7.53
2022-10-26T03:55:19.341Z,5.97
2022-10-26T03:57:47.156Z,7.37
2022-10-26T04:00:17.249Z,6.93
2022-10-26T04:02:46.925Z,6.70
2022-10-26T04:05:16.575Z,7.00
2022-10-26T04:07:44.620Z,5.70
2022-10-26T04:10:12.543Z,8.00
2022-10-26T04:12:41.735Z,6.90
2022-10-26T04:15:10.245Z,6.77
2022-10-26T04:17:38.048Z,5.87
2022-10-26T04:20:06.698Z,6.17
2022-10-26T04:22:35.128Z,6.00
2022-10-26T04:25:02.977Z,6.77
2022-10-26T04:27:30.781Z,6.67
2022-10-26T04:30:00.160Z,6.57
2022-10-26T04:32:28.066Z,7.00
2022-10-26T04:34:55.843Z,5.97
2022-10-26T04:37:23.639Z,8.00
2022-10-26T04:39:51.398Z,12.77
2022-10-26T04:42:19.161Z,6.57
2022-10-26T04:44:46.912Z,14.90
2022-10-26T04:47:16.025Z,8.30
2022-10-26T04:49:43.790Z,7.00
2022-10-26T04:52:11.557Z,5.90
2022-10-26T04:54:39.401Z,5.53
2022-10-26T04:57:07.310Z,5.07
2022-10-26T04:59:35.114Z,4.93
2022-10-26T05:02:03.079Z,4.87
2022-10-26T05:04:32.379Z,6.10
2022-10-26T05:07:00.153Z,5.33
2022-10-26T05:09:27.940Z,6.00
2022-10-26T05:11:55.691Z,6.53
2022-10-26T05:14:23.588Z,8.30
2022-10-26T05:16:51.819Z,8.17
2022-10-26T05:19:19.631Z,7.20
2022-10-26T05:21:48.752Z,6.43
2022-10-26T05:24:16.548Z,5.90
2022-10-26T05:26:44.520Z,5.70
2022-10-26T05:29:12.461Z,5.90
2022-10-26T05:31:40.292Z,8.23
2022-10-26T05:34:08.079Z,7.00
2022-10-26T05:36:35.819Z,5.13
2022-10-26T05:39:05.205Z,5.00
2022-10-26T05:41:32.952Z,5.47
2022-10-26T05:44:00.957Z,5.43
2022-10-26T05:46:28.738Z,6.53
2022-10-26T05:48:56.508Z,9.70
2022-10-26T05:51:24.260Z,8.60
2022-10-26T05:53:54.685Z,9.43
2022-10-26T05:56:36.614Z,9.83
2022-10-26T05:59:05.068Z,7.63
2022-10-26T06:01:48.842Z,6.57
2022-10-26T06:04:28.214Z,8.73
2022-10-26T06:06:58.520Z,5.63
2022-10-26T06:09:27.157Z,7.07
2022-10-26T06:11:57.097Z,6.73
2022-10-26T06:14:25.399Z,5.83
2022-10-26T06:17:07.822Z,7.50
2022-10-26T06:19:48.345Z,11.00
2022-10-26T06:22:29.401Z,7.13
2022-10-26T06:25:05.289Z,9.43
2022-10-26T06:27:44.826Z,10.67
2022-10-26T06:30:13.166Z,7.03
2022-10-26T06:32:42.501Z,7.70
2022-10-26T06:35:25.196Z,12.63
2022-10-26T06:37:55.360Z,12.97
2022-10-26T06:40:24.869Z,9.20
2022-10-26T06:42:54.661Z,9.43
2022-10-26T06:45:23.289Z,13.60
2022-10-26T06:47:58.375Z,10.40
2022-10-26T06:50:37.645Z,8.00
2022-10-26T06:53:22.209Z,6.70
2022-10-26T06:55:51.772Z,7.70
2022-10-26T06:58:24.204Z,9.73
2022-10-26T07:00:54.883Z,7.40
2022-10-26T07:03:22.720Z,6.90
2022-10-26T07:05:50.806Z,8.33
2022-10-26T07:08:18.841Z,7.53
2022-10-26T07:10:48.014Z,9.43
2022-10-26T07:13:15.941Z,9.73
2022-10-26T07:15:45.117Z,10.77
2022-10-26T07:18:12.907Z,9.53
2022-10-26T07:20:42.909Z,11.43
2022-10-26T07:23:11.905Z,10.63
2022-10-26T07:25:40.648Z,8.70
2022-10-26T07:28:10.153Z,8.10
2022-10-26T07:30:39.249Z,10.17
2022-10-26T07:33:10.572Z,7.60
2022-10-26T07:35:38.673Z,11.47
2022-10-26T07:38:07.168Z,13.90
2022-10-26T07:40:35.700Z,11.10
2022-10-26T07:43:03.468Z,9.90
2022-10-26T07:45:31.636Z,10.13
2022-10-26T07:47:59.416Z,8.93
2022-10-26T07:50:28.559Z,9.87
2022-10-26T07:52:56.332Z,7.53
2022-10-26T07:55:24.213Z,9.60
2022-10-26T07:57:54.712Z,8.67
2022-10-26T08:00:23.383Z,9.73
2022-10-26T08:02:51.180Z,7.37
2022-10-26T08:05:19.347Z,10.97
2022-10-26T08:07:49.074Z,7.77
2022-10-26T08:10:17.546Z,10.63
2022-10-26T08:12:45.448Z,9.27
2022-10-26T08:15:13.268Z,6.60
2022-10-26T08:17:41.033Z,8.50
2022-10-26T08:20:09.977Z,7.97
2022-10-26T08:22:37.737Z,7.73
2022-10-26T08:25:07.464Z,8.50
2022-10-26T08:27:35.258Z,6.57
2022-10-26T08:30:03.041Z,7.50
2022-10-26T08:32:30.876Z,9.60
2022-10-26T08:34:58.632Z,9.40
2022-10-26T08:37:28.241Z,9.43
2022-10-26T08:39:57.489Z,6.40
2022-10-26T08:42:34.896Z,8.23
2022-10-26T08:45:08.605Z,6.83
2022-10-26T08:47:43.090Z,6.80
2022-10-26T08:50:15.415Z,9.07
2022-10-26T08:52:50.949Z,9.17
2022-10-26T08:55:23.468Z,7.27
2022-10-26T08:57:54.521Z,7.57
2022-10-26T09:00:24.565Z,5.67
2022-10-26T09:02:53.469Z,11.83
2022-10-26T09:05:28.740Z,10.10
2022-10-26T09:08:06.133Z,7.67
2022-10-26T09:10:40.932Z,7.97
2022-10-26T09:13:24.745Z,8.23
2022-10-26T09:16:03.457Z,7.80
2022-10-26T09:18:42.502Z,7.23
2022-10-26T09:21:17.209Z,7.00
2022-10-26T09:23:57.039Z,8.93
2022-10-26T09:26:33.492Z,7.00
2022-10-26T09:29:06.608Z,10.30
2022-10-26T09:31:43.971Z,8.37
2022-10-26T09:34:21.475Z,8.50
2022-10-26T09:36:54.189Z,9.47
2022-10-26T09:39:29.686Z,8.40
2022-10-26T09:42:01.273Z,9.00
2022-10-26T09:44:35.678Z,8.30
2022-10-26T09:47:07.655Z,10.90
2022-10-26T09:49:42.712Z,7.73
2022-10-26T09:54:39.465Z,10.67
2022-10-26T09:57:08.829Z,9.10
2022-10-26T09:59:41.139Z,12.07
2022-10-26T10:02:35.540Z,15.13
2022-10-26T10:05:32.574Z,9.70
2022-10-26T10:08:19.075Z,7.47
2022-10-26T10:10:56.154Z,7.57
2022-10-26T10:13:26.765Z,13.67
2022-10-26T10:15:58.688Z,10.73
2022-10-26T10:18:26.716Z,9.20
2022-10-26T10:20:57.565Z,10.20
2022-10-26T10:23:28.996Z,9.27
2022-10-26T10:26:06.043Z,9.53
2022-10-26T10:28:35.134Z,12.43
2022-10-26T10:31:06.368Z,8.53
2022-10-26T10:33:39.611Z,10.00
2022-10-26T10:36:11.463Z,11.73
2022-10-26T10:38:41.777Z,11.37
2022-10-26T10:41:18.172Z,9.40
2022-10-26T10:43:49.861Z,7.87
2022-10-26T10:46:25.695Z,13.00
2022-10-26T10:49:01.775Z,10.60
2022-10-26T10:51:31.613Z,8.00
2022-10-26T10:53:59.440Z,7.10
2022-10-26T10:56:35.400Z,8.47
2022-10-26T10:59:22.386Z,7.97
2022-10-26T11:01:59.046Z,7.90
2022-10-26T11:04:45.828Z,7.80
2022-10-26T11:07:16.273Z,9.53
2022-10-26T11:09:47.836Z,10.50
2022-10-26T11:12:19.960Z,8.63
2022-10-26T11:14:53.711Z,11.57
2022-10-26T11:17:26.882Z,11.30
2022-10-26T11:19:58.653Z,9.13
2022-10-26T11:22:30.104Z,9.70
2022-10-26T11:25:01.569Z,8.13
2022-10-26T11:27:35.184Z,7.37
2022-10-26T11:30:06.952Z,10.83
2022-10-26T11:32:44.321Z,12.50
2022-10-26T11:35:17.901Z,8.93
2022-10-26T11:37:50.884Z,10.70
2022-10-26T11:40:29.318Z,9.20
2022-10-26T11:43:06.422Z,11.10
2022-10-26T11:45:37.101Z,8.00
2022-10-26T11:48:15.862Z,10.53
2022-10-26T11:50:47.580Z,9.90
2022-10-26T11:53:18.726Z,12.57
2022-10-26T11:55:52.246Z,12.33
2022-10-26T11:58:23.945Z,12.60
2022-10-26T12:00:57.690Z,11.07
2022-10-26T12:03:29.470Z,11.27
2022-10-26T12:05:57.315Z,13.83
2022-10-26T12:08:28.332Z,10.27
2022-10-26T12:11:03.435Z,11.83
2022-10-26T12:13:37.915Z,12.37
2022-10-26T12:16:12.660Z,19.83
2022-10-26T12:18:55.584Z,9.77
2022-10-26T12:21:27.191Z,9.93
2022-10-26T12:23:56.589Z,11.00
2022-10-26T12:26:57.353Z,11.60
2022-10-26T12:29:47.253Z,12.37
2022-10-26T12:32:51.638Z,9.20
2022-10-26T12:35:54.813Z,11.00
2022-10-26T12:39:00.092Z,10.63
2022-10-26T12:41:29.086Z,10.33
2022-10-26T12:43:59.178Z,10.37
2022-10-26T12:46:42.495Z,12.23
2022-10-26T12:49:58.195Z,11.50
2022-10-26T12:52:40.788Z,9.93
2022-10-26T12:55:49.936Z,10.70
2022-10-26T12:58:54.166Z,9.70
2022-10-26T13:04:51.243Z,12.20
2022-10-26T13:07:21.892Z,13.17
2022-10-26T13:09:58.887Z,11.00
2022-10-26T13:12:28.351Z,13.80
2022-10-26T13:15:01.472Z,10.40
2022-10-26T13:17:32.422Z,9.30
2022-10-26T13:20:02.128Z,14.50
2022-10-26T13:22:31.004Z,20.10
2022-10-26T13:25:03.120Z,10.40
2022-10-26T13:27:44.895Z,8.00
2022-10-26T13:30:43.881Z,11.10
2022-10-26T13:33:37.782Z,10.00
2022-10-26T13:36:16.673Z,9.53
2022-10-26T13:38:47.229Z,11.10
2022-10-26T13:41:23.863Z,8.43
2022-10-26T13:43:53.182Z,10.23
2022-10-26T13:46:28.424Z,9.63
2022-10-26T13:49:04.810Z,16.40
2022-10-26T13:51:41.886Z,11.03
2022-10-26T13:54:21.666Z,8.33
2022-10-26T13:57:03.219Z,10.03
2022-10-26T13:59:34.301Z,10.43
2022-10-26T14:02:15.743Z,11.80
2022-10-26T14:04:47.162Z,9.83
2022-10-26T14:07:22.751Z,10.70
2022-10-26T14:09:52.655Z,9.90
2022-10-26T14:12:22.436Z,14.47
2022-10-26T14:14:51.434Z,12.00
2022-10-26T14:17:25.534Z,15.30
2022-10-26T14:19:54.200Z,15.17
2022-10-26T14:22:25.270Z,22.77
2022-10-26T14:27:27.560Z,13.13
2022-10-26T14:32:44.285Z,14.20
2022-10-26T14:35:13.613Z,14.63
2022-10-26T14:37:46.552Z,12.10
2022-10-26T14:40:18.218Z,11.57
2022-10-26T14:42:51.289Z,14.00
2022-10-26T14:45:43.334Z,10.97
2022-10-26T14:48:21.892Z,9.20
2022-10-26T14:51:00.397Z,13.20
2022-10-26T14:53:35.423Z,15.10
2022-10-26T14:56:05.095Z,11.70
2022-10-26T14:58:35.252Z,12.27
2022-10-26T15:01:16.185Z,19.57
2022-10-26T15:03:45.409Z,20.70
2022-10-26T15:06:34.224Z,25.00
2022-10-26T15:09:04.614Z,22.00
2022-10-26T15:11:34.488Z,16.73
2022-10-26T15:14:04.176Z,15.83
2022-10-26T15:16:35.987Z,19.23
2022-10-26T15:19:10.302Z,23.20
2022-10-26T15:21:41.112Z,20.43
2022-10-26T15:24:27.490Z,19.10
2022-10-26T15:26:55.710Z,22.97
2022-10-26T15:29:39.302Z,26.20
2022-10-26T15:32:20.489Z,28.23
2022-10-26T15:34:50.739Z,29.70
2022-10-26T15:37:19.816Z,25.23
2022-10-26T15:39:47.940Z,20.83
2022-10-26T15:42:15.850Z,20.07
2022-10-26T15:44:44.968Z,21.20
2022-10-26T15:47:19.399Z,19.73
2022-10-26T15:49:47.252Z,23.50
2022-10-26T15:52:15.145Z,19.43
2022-10-26T15:54:42.967Z,18.37
2022-10-26T15:57:16.708Z,19.37
2022-10-26T15:59:48.380Z,16.20
2022-10-26T16:02:17.405Z,20.90
2022-10-26T16:04:45.353Z,19.90
2022-10-26T16:07:14.363Z,20.47
2022-10-26T16:09:43.077Z,17.27
2022-10-26T16:12:11.892Z,20.10
2022-10-26T16:15:00.593Z,20.67
2022-10-26T16:17:29.112Z,20.37
2022-10-26T16:19:56.876Z,29.20
2022-10-26T16:22:25.037Z,24.93
2022-10-26T16:24:52.813Z,23.50
2022-10-26T16:27:20.598Z,19.80
2022-10-26T16:29:48.494Z,48.30
2022-10-26T16:32:16.298Z,28.87
2022-10-26T16:34:45.510Z,32.53
2022-10-26T16:37:13.251Z,22.20
2022-10-26T16:39:41.010Z,21.37
2022-10-26T16:42:08.780Z,24.33
2022-10-26T16:44:37.908Z,19.67
2022-10-26T16:47:05.839Z,20.37
2022-10-26T16:49:34.166Z,24.43
2022-10-26T16:52:04.292Z,20.27
2022-10-26T16:54:32.069Z,19.73
2022-10-26T16:56:59.841Z,25.57
2022-10-26T16:59:27.701Z,33.30
2022-10-26T17:01:55.606Z,26.03
2022-10-26T17:04:23.566Z,33.07
2022-10-26T17:06:51.730Z,34.00
2022-10-26T17:09:20.945Z,40.10
2022-10-26T17:11:48.888Z,34.17
2022-10-26T17:14:17.224Z,35.77
2022-10-26T17:16:44.967Z,36.23
2022-10-26T17:19:12.975Z,35.70
2022-10-26T17:21:40.729Z,37.80
2022-10-26T17:24:08.713Z,28.80
2022-10-26T17:26:37.876Z,28.00
2022-10-26T17:29:05.759Z,27.50
2022-10-26T17:31:34.235Z,24.77
2022-10-26T17:34:02.324Z,25.10
2022-10-26T17:36:31.639Z,30.00
2022-10-26T17:39:00.765Z,23.97
2022-10-26T17:41:28.732Z,23.70
2022-10-26T17:43:58.045Z,23.37
2022-10-26T17:46:27.922Z,23.30
2022-10-26T17:48:56.395Z,21.77
2022-10-26T17:51:24.785Z,23.80
2022-10-26T17:53:52.756Z,27.23
2022-10-26T17:56:22.195Z,51.80
2022-10-26T17:58:53.688Z,45.10
2022-10-26T18:01:23.495Z,47.83
2022-10-26T18:03:51.458Z,40.77
2022-10-26T18:06:19.357Z,52.37
2022-10-26T18:08:47.285Z,49.03
2022-10-26T18:11:18.575Z,37.37
2022-10-26T18:13:48.537Z,32.00
2022-10-26T18:16:19.053Z,63.27
2022-10-26T18:18:50.072Z,67.57
2022-10-26T18:21:19.529Z,41.40
2022-10-26T18:23:47.956Z,36.00
2022-10-26T18:26:18.612Z,31.40
2022-10-26T18:28:47.070Z,29.50
2022-10-26T18:31:16.805Z,28.17
2022-10-26T18:33:44.936Z,27.23
2022-10-26T18:36:15.627Z,29.20
2022-10-26T18:38:44.438Z,27.57
2022-10-26T18:41:14.161Z,29.90
2022-10-26T18:43:42.699Z,28.90
2022-10-26T18:46:14.155Z,27.17
2022-10-26T18:48:44.365Z,30.03
2022-10-26T18:51:15.204Z,31.30
2022-10-26T18:53:44.636Z,28.83
2022-10-26T18:56:14.101Z,31.30
2022-10-26T18:58:43.760Z,36.53
2022-10-26T19:01:13.421Z,39.27
2022-10-26T19:03:42.359Z,42.23
2022-10-26T19:06:12.339Z,35.40
2022-10-26T19:08:42.510Z,41.83
2022-10-26T19:11:12.566Z,39.70
2022-10-26T19:13:40.515Z,34.07
2022-10-26T19:16:21.718Z,37.93
2022-10-26T19:18:58.993Z,35.47
2022-10-26T19:21:28.169Z,31.10
2022-10-26T19:23:59.404Z,33.33
2022-10-26T19:26:33.381Z,30.83
2022-10-26T19:29:05.881Z,36.17
2022-10-26T19:31:35.620Z,34.63
2022-10-26T19:34:04.400Z,32.90
2022-10-26T19:36:32.208Z,35.00
2022-10-26T19:39:02.014Z,38.73
2022-10-26T19:41:31.298Z,44.80
2022-10-26T19:46:32.781Z,35.77
2022-10-26T19:49:02.482Z,47.10
2022-10-26T19:51:32.131Z,36.33
2022-10-26T19:54:03.762Z,31.57
2022-10-26T19:56:32.431Z,36.57
2022-10-26T19:59:00.977Z,31.57
2022-10-26T20:01:29.145Z,32.07
2022-10-26T20:03:57.208Z,44.03
2022-10-26T20:06:25.054Z,60.73
2022-10-26T20:08:52.836Z,47.20
2022-10-26T20:11:21.976Z,35.60
2022-10-26T20:13:49.788Z,31.83
2022-10-26T20:16:18.615Z,34.67
2022-10-26T20:18:48.976Z,36.13
2022-10-26T20:21:18.324Z,32.50
2022-10-26T20:23:46.412Z,30.67
2022-10-26T20:26:18.449Z,31.97
2022-10-26T20:28:51.285Z,27.37
2022-10-26T20:31:19.700Z,28.33
2022-10-26T20:33:51.436Z,34.13
2022-10-26T20:36:19.269Z,26.23
2022-10-26T20:38:47.594Z,28.53
2022-10-26T20:41:15.912Z,29.67
2022-10-26T20:43:44.341Z,30.10
2022-10-26T20:46:21.800Z,33.50
2022-10-26T20:48:50.365Z,34.73
2022-10-26T20:51:23.808Z,33.93
2022-10-26T20:54:04.470Z,35.77
2022-10-26T20:56:34.840Z,30.27
2022-10-26T20:59:04.983Z,30.50
2022-10-26T21:01:38.135Z,30.97
2022-10-26T21:04:06.235Z,31.97
2022-10-26T21:06:40.058Z,34.77
2022-10-26T21:09:08.994Z,33.20
2022-10-26T21:11:36.804Z,31.17
2022-10-26T21:14:06.363Z,27.17
2022-10-26T21:16:35.678Z,24.40
2022-10-26T21:19:04.921Z,27.10
2022-10-26T21:21:33.145Z,29.03
2022-10-26T21:24:02.371Z,38.70
2022-10-26T21:26:30.481Z,42.10
2022-10-26T21:28:58.288Z,30.87
2022-10-26T21:31:26.132Z,33.30
2022-10-26T21:33:55.321Z,29.47
2022-10-26T21:36:23.140Z,31.40
2022-10-26T21:38:50.887Z,35.67
2022-10-26T21:41:20.649Z,36.23
2022-10-26T21:43:55.959Z,33.63
2022-10-26T21:46:31.449Z,30.70
2022-10-26T21:49:00.524Z,29.67
2022-10-26T21:51:28.320Z,34.63
2022-10-26T21:53:56.079Z,29.03
2022-10-26T21:56:23.939Z,56.70
2022-10-26T21:58:51.687Z,90.83
2022-10-26T22:01:21.226Z,55.97
2022-10-26T22:03:49.717Z,40.00
2022-10-26T22:06:23.485Z,36.70
2022-10-26T22:08:51.305Z,41.87
2022-10-26T22:11:21.105Z,87.20
2022-10-26T22:13:50.385Z,66.57
2022-10-26T22:16:20.880Z,42.03
2022-10-26T22:18:50.103Z,39.03
2022-10-26T22:21:19.476Z,31.83
2022-10-26T22:23:48.888Z,29.93
2022-10-26T22:26:19.503Z,70.60
2022-10-26T22:28:48.612Z,71.00
2022-10-26T22:31:18.955Z,66.07
2022-10-26T22:33:46.846Z,28.60
2022-10-26T22:36:16.898Z,40.13
2022-10-26T22:38:45.443Z,29.23
2022-10-26T22:41:14.532Z,40.60
2022-10-26T22:43:42.325Z,31.80
2022-10-26T22:46:13.992Z,26.30
2022-10-26T22:48:42.213Z,62.50
2022-10-26T22:51:12.392Z,76.77
2022-10-26T22:53:40.271Z,57.87
2022-10-26T22:56:10.239Z,34.30
2022-10-26T22:58:40.620Z,26.33
2022-10-26T23:01:10.346Z,33.57
2022-10-26T23:03:38.463Z,34.47
2022-10-26T23:06:08.542Z,26.93
2022-10-26T23:08:36.418Z,25.70
2022-10-26T23:11:06.824Z,37.93
2022-10-26T23:13:35.015Z,61.30
2022-10-26T23:16:07.743Z,54.00
2022-10-26T23:18:36.055Z,39.80
2022-10-26T23:21:05.016Z,41.63
2022-10-26T23:23:33.084Z,33.83
2022-10-26T23:26:01.859Z,31.00
2022-10-26T23:28:30.114Z,30.20
2022-10-26T23:30:58.241Z,31.00
2022-10-26T23:33:27.601Z,34.90
2022-10-26T23:35:55.393Z,35.90
2022-10-26T23:38:23.153Z,29.40
2022-10-26T23:40:52.181Z,28.10
2022-10-26T23:43:20.205Z,25.50
2022-10-26T23:45:48.200Z,27.93
2022-10-26T23:48:17.019Z,32.43
2022-10-26T23:50:47.497Z,57.43
2022-10-26T23:53:16.282Z,32.37
2022-10-26T23:55:44.429Z,34.60
2022-10-26T23:58:12.983Z,28.23
